Time;durP1;ratioP1;P1;durP2;ratioP2;P2;SDS_P1;SDS_P2;PMS_P1;PMS_P2;Temp;Humidity;BMP_temperature;BMP_pressure;BME280_temperature;BME280_humidity;BME280_pressure;Samples;Min_cycle;Max_cycle;Signal;HPM_P1;HPM_P2
2021/12/13 00:00:34;;;;;;;14.27;8.25;;;;;;;;;;5052068;28;20122;-41
2021/12/13 00:03:07;;;;;;;15.95;8.25;;;;;;;;;;5051775;28;20025;-42
2021/12/13 00:05:59;;;;;;;17.98;9.23;;;;;;;;;;5052254;28;20100;-41
2021/12/13 00:08:30;;;;;;;17.65;9.65;;;;;;;;;;5051966;28;20025;-41
2021/12/13 00:11:13;;;;;;;18.60;8.88;;;;;;;;;;5051562;28;20041;-41
2021/12/13 00:13:48;;;;;;;19.17;7.68;;;;;;;;;;5051704;28;20494;-41
2021/12/13 00:16:15;;;;;;;20.88;9.35;;;;;;;;;;5051698;28;20025;-40
2021/12/13 00:18:45;;;;;;;21.42;8.70;;;;;;;;;;5051581;28;20075;-41
2021/12/13 00:21:16;;;;;;;19.67;9.57;;;;;;;;;;5051711;28;20028;-41
2021/12/13 00:23:56;;;;;;;14.90;8.80;;;;;;;;;;5051952;28;20382;-41
2021/12/13 00:26:27;;;;;;;23.95;9.90;;;;;;;;;;5055562;28;20108;-40
2021/12/13 00:28:53;;;;;;;18.98;9.57;;;;;;;;;;5055536;28;20036;-42
2021/12/13 00:31:35;;;;;;;14.05;8.02;;;;;;;;;;5055380;28;20436;-41
2021/12/13 00:34:11;;;;;;;14.38;8.57;;;;;;;;;;5055026;28;20021;-42
2021/12/13 00:37:05;;;;;;;15.43;8.95;;;;;;;;;;5055096;28;20029;-41
2021/12/13 00:39:37;;;;;;;15.65;8.70;;;;;;;;;;5000555;28;20054;-41
2021/12/13 00:42:04;;;;;;;19.17;9.07;;;;;;;;;;5055009;28;20028;-43
2021/12/13 00:44:41;;;;;;;17.50;9.05;;;;;;;;;;5055004;28;20267;-43
2021/12/13 00:47:13;;;;;;;17.60;8.55;;;;;;;;;;5054937;28;20029;-42
2021/12/13 00:49:44;;;;;;;16.25;8.93;;;;;;;;;;5054893;28;20039;-43
2021/12/13 00:52:16;;;;;;;15.23;8.40;;;;;;;;;;5055172;28;20431;-43
2021/12/13 00:54:43;;;;;;;16.52;8.35;;;;;;;;;;5054718;28;20024;-42
2021/12/13 00:57:29;;;;;;;16.33;8.45;;;;;;;;;;5054779;28;20406;-43
2021/12/13 01:00:24;;;;;;;17.70;9.20;;;;;;;;;;5054679;28;20489;-42
2021/12/13 01:02:59;;;;;;;18.80;8.73;;;;;;;;;;5046965;28;20041;-42
2021/12/13 01:05:42;;;;;;;16.23;8.70;;;;;;;;;;5055123;28;20025;-42
2021/12/13 01:08:29;;;;;;;15.40;8.25;;;;;;;;;;5054585;28;20021;-43
2021/12/13 01:10:55;;;;;;;18.05;8.82;;;;;;;;;;5054284;28;20083;-42
2021/12/13 01:13:55;;;;;;;16.13;9.40;;;;;;;;;;5054348;28;20053;-42
2021/12/13 01:17:07;;;;;;;17.65;8.65;;;;;;;;;;5020390;28;20037;-43
2021/12/13 01:19:50;;;;;;;15.38;8.98;;;;;;;;;;5054569;28;20076;-43
2021/12/13 01:27:40;;;;;;;16.77;8.90;;;;;;;;;;5054484;28;20040;-42
2021/12/13 01:30:17;;;;;;;16.83;9.05;;;;;;;;;;5053995;28;20531;-42
2021/12/13 01:32:47;;;;;;;21.75;9.43;;;;;;;;;;5054088;28;20478;-43
2021/12/13 01:35:18;;;;;;;20.10;10.07;;;;;;;;;;5053294;28;20543;-42
2021/12/13 01:37:50;;;;;;;22.02;9.60;;;;;;;;;;5053741;28;20075;-43
2021/12/13 01:40:18;;;;;;;18.92;8.90;;;;;;;;;;5053956;28;20063;-42
2021/12/13 01:42:44;;;;;;;15.98;8.70;;;;;;;;;;5054136;28;20025;-43
2021/12/13 01:45:14;;;;;;;21.48;10.18;;;;;;;;;;5054107;28;20040;-43
2021/12/13 01:47:45;;;;;;;15.90;8.65;;;;;;;;;;5054065;28;20382;-42
2021/12/13 01:50:17;;;;;;;19.45;8.98;;;;;;;;;;5053893;28;20067;-43
2021/12/13 01:52:44;;;;;;;15.80;9.63;;;;;;;;;;5053642;28;20036;-42
2021/12/13 01:55:17;;;;;;;18.58;9.95;;;;;;;;;;5053609;28;20060;-43
2021/12/13 01:57:55;;;;;;;21.48;10.02;;;;;;;;;;5053581;28;20033;-42
2021/12/13 02:00:43;;;;;;;17.92;9.25;;;;;;;;;;5053783;28;20037;-42
2021/12/13 02:03:10;;;;;;;15.57;8.55;;;;;;;;;;5053449;28;20462;-42
2021/12/13 02:05:35;;;;;;;19.83;9.65;;;;;;;;;;5053272;28;20032;-42
2021/12/13 02:08:09;;;;;;;17.90;8.80;;;;;;;;;;5052931;28;20393;-44
2021/12/13 02:10:38;;;;;;;18.20;9.15;;;;;;;;;;5053174;28;20560;-41
2021/12/13 02:13:21;;;;;;;20.58;8.60;;;;;;;;;;5053431;28;20370;-41
2021/12/13 02:18:38;;;;;;;18.65;8.68;;;;;;;;;;5053496;28;20055;-42
2021/12/13 02:21:18;;;;;;;16.15;9.05;;;;;;;;;;5053367;28;20029;-41
2021/12/13 02:23:47;;;;;;;16.90;9.02;;;;;;;;;;5053391;28;20036;-41
2021/12/13 02:26:13;;;;;;;17.45;7.88;;;;;;;;;;5053240;28;20025;-41
2021/12/13 02:28:42;;;;;;;16.38;8.18;;;;;;;;;;5053209;28;20098;-41
2021/12/13 02:31:23;;;;;;;17.02;8.25;;;;;;;;;;5053082;28;20055;-41
2021/12/13 02:33:50;;;;;;;;;;;;;;;;;;5035435;28;20021;-41
2021/12/13 02:36:28;;;;;;;11.15;6.35;;;;;;;;;;5053032;28;19912;-41
2021/12/13 02:38:58;;;;;;;13.75;7.10;;;;;;;;;;5052801;28;20032;-44
2021/12/13 02:41:26;;;;;;;15.38;8.27;;;;;;;;;;5052908;28;20025;-43
2021/12/13 02:44:00;;;;;;;17.30;7.97;;;;;;;;;;5052866;28;20021;-43
2021/12/13 02:46:26;;;;;;;13.30;7.38;;;;;;;;;;5052602;28;20118;-44
2021/12/13 02:48:55;;;;;;;13.27;7.93;;;;;;;;;;5052511;28;20029;-43
2021/12/13 02:51:23;;;;;;;13.65;7.47;;;;;;;;;;5052428;28;20053;-43
2021/12/13 02:54:03;;;;;;;17.10;8.85;;;;;;;;;;5052778;28;20126;-43
2021/12/13 02:56:34;;;;;;;12.13;7.97;;;;;;;;;;5052785;28;20397;-43
2021/12/13 02:59:02;;;;;;;16.33;8.85;;;;;;;;;;5052817;28;20037;-43
2021/12/13 03:01:35;;;;;;;17.02;8.52;;;;;;;;;;5052675;28;20377;-43
2021/12/13 03:04:05;;;;;;;17.52;8.95;;;;;;;;;;5052399;28;20025;-43
2021/12/13 03:06:37;;;;;;;17.30;9.27;;;;;;;;;;5052660;28;20124;-42
2021/12/13 03:09:15;;;;;;;14.40;7.78;;;;;;;;;;5052069;28;20068;-43
2021/12/13 03:11:41;;;;;;;15.80;9.00;;;;;;;;;;5052074;28;20053;-44
2021/12/13 03:14:11;;;;;;;17.05;8.77;;;;;;;;;;5052226;28;20078;-43
2021/12/13 03:16:50;;;;;;;15.65;8.70;;;;;;;;;;5052238;28;20021;-44
2021/12/13 03:19:37;;;;;;;19.87;8.60;;;;;;;;;;5052554;28;20032;-43
2021/12/13 03:22:29;;;;;;;13.82;8.15;;;;;;;;;;5050640;28;20701;-43
2021/12/13 03:25:04;;;;;;;19.40;9.55;;;;;;;;;;5051885;28;20039;-43
2021/12/13 03:27:48;;;;;;;14.55;8.35;;;;;;;;;;5052437;28;20358;-43
2021/12/13 03:30:19;;;;;;;19.30;9.27;;;;;;;;;;5052092;28;20031;-43
2021/12/13 03:32:59;;;;;;;17.15;8.25;;;;;;;;;;5052500;28;20412;-43
2021/12/13 03:35:36;;;;;;;12.65;8.45;;;;;;;;;;5052401;28;20586;-43
2021/12/13 03:38:13;;;;;;;12.98;7.80;;;;;;;;;;5052110;28;20496;-43
2021/12/13 03:40:40;;;;;;;16.65;7.72;;;;;;;;;;5052101;28;20021;-43
2021/12/13 03:43:12;;;;;;;15.93;8.15;;;;;;;;;;5052401;28;20028;-43
2021/12/13 03:45:46;;;;;;;14.75;7.65;;;;;;;;;;5052372;28;20380;-43
2021/12/13 03:48:14;;;;;;;13.80;7.68;;;;;;;;;;5051983;28;20469;-43
2021/12/13 03:50:44;;;;;;;15.30;8.45;;;;;;;;;;5052193;28;20388;-42
2021/12/13 03:53:18;;;;;;;14.90;8.00;;;;;;;;;;5052018;28;20036;-42
2021/12/13 03:55:48;;;;;;;16.92;7.57;;;;;;;;;;5052240;28;20477;-42
2021/12/13 03:58:15;;;;;;;;;;;;;;;;;;5052658;28;20029;-42
2021/12/13 04:00:53;;;;;;;15.10;7.05;;;;;;;;;;5055798;28;20368;-43
2021/12/13 04:03:19;;;;;;;16.85;7.50;;;;;;;;;;5056100;28;20032;-42
2021/12/13 04:05:47;;;;;;;13.52;6.55;;;;;;;;;;5055742;28;20104;-41
2021/12/13 04:08:16;;;;;;;12.63;7.03;;;;;;;;;;5055663;28;20032;-41
2021/12/13 04:10:54;;;;;;;12.27;7.25;;;;;;;;;;5055492;28;20065;-41
2021/12/13 04:13:26;;;;;;;14.27;6.97;;;;;;;;;;5055604;28;20029;-41
2021/12/13 04:21:35;;;;;;;12.02;7.47;;;;;;;;;;5042415;28;20511;-41
2021/12/13 04:24:04;;;;;;;15.95;7.47;;;;;;;;;;5055660;28;20413;-41
2021/12/13 04:26:38;;;;;;;14.95;7.53;;;;;;;;;;5055677;28;20381;-41
2021/12/13 04:29:10;;;;;;;15.02;7.43;;;;;;;;;;5055282;28;20388;-42
2021/12/13 04:31:37;;;;;;;13.68;7.78;;;;;;;;;;5055498;28;20036;-42
2021/12/13 04:34:05;;;;;;;16.52;7.78;;;;;;;;;;5055208;28;20100;-41
2021/12/13 04:36:41;;;;;;;15.05;7.18;;;;;;;;;;5055123;28;20108;-42
2021/12/13 04:39:27;;;;;;;21.45;7.93;;;;;;;;;;5055430;28;20055;-41
2021/12/13 04:42:02;;;;;;;13.38;7.63;;;;;;;;;;5055389;28;20033;-42
2021/12/13 04:44:52;;;;;;;16.27;7.80;;;;;;;;;;5055010;28;20025;-41
2021/12/13 04:47:23;;;;;;;;;;;;;;;;;;5037556;28;20408;-41
2021/12/13 04:50:14;;;;;;;14.90;8.02;;;;;;;;;;5054801;28;20024;-42
2021/12/13 04:52:41;;;;;;;23.67;12.60;;;;;;;;;;5055213;28;20028;-42
2021/12/13 04:55:16;;;;;;;19.42;10.63;;;;;;;;;;5054757;28;20025;-43
2021/12/13 04:57:41;;;;;;;16.60;8.75;;;;;;;;;;5036900;28;20384;-43
2021/12/13 05:00:13;;;;;;;14.73;7.45;;;;;;;;;;5054978;28;20119;-42
2021/12/13 05:02:43;;;;;;;12.25;7.00;;;;;;;;;;5055171;28;20139;-42
2021/12/13 05:05:10;;;;;;;14.02;8.23;;;;;;;;;;5054865;28;20021;-42
2021/12/13 05:07:36;;;;;;;17.45;7.38;;;;;;;;;;5054736;28;20032;-42
2021/12/13 05:10:03;;;;;;;14.35;7.50;;;;;;;;;;5054243;28;20380;-43
2021/12/13 05:12:29;;;;;;;13.95;8.05;;;;;;;;;;5054640;28;20116;-42
2021/12/13 05:15:01;;;;;;;15.32;7.88;;;;;;;;;;5054854;28;20049;-42
2021/12/13 05:17:43;;;;;;;14.88;7.43;;;;;;;;;;5054896;28;20504;-41
2021/12/13 05:20:29;;;;;;;18.00;8.27;;;;;;;;;;5054423;28;20115;-42
2021/12/13 05:23:19;;;;;;;22.40;8.95;;;;;;;;;;5054404;28;20021;-42
2021/12/13 05:25:52;;;;;;;20.58;8.30;;;;;;;;;;5054407;28;20025;-41
2021/12/13 05:28:21;;;;;;;14.30;7.50;;;;;;;;;;5054676;28;20032;-42
2021/12/13 05:30:58;;;;;;;17.73;8.55;;;;;;;;;;5052870;28;20049;-43
2021/12/13 05:33:27;;;;;;;16.05;7.78;;;;;;;;;;5054153;28;20036;-42
2021/12/13 05:35:59;;;;;;;16.83;9.38;;;;;;;;;;5054024;28;20029;-42
2021/12/13 05:38:46;;;;;;;18.15;8.82;;;;;;;;;;5054193;28;20029;-41
2021/12/13 05:41:20;;;;;;;18.50;9.38;;;;;;;;;;5054148;28;20037;-42
2021/12/13 05:43:52;;;;;;;17.00;8.48;;;;;;;;;;5054240;28;20080;-42
2021/12/13 05:46:23;;;;;;;19.67;8.60;;;;;;;;;;5054238;28;20032;-42
2021/12/13 05:48:56;;;;;;;16.85;8.90;;;;;;;;;;5053845;28;20021;-41
2021/12/13 05:51:42;;;;;;;16.85;8.20;;;;;;;;;;5053762;28;20503;-43
2021/12/13 05:54:10;;;;;;;19.23;8.55;;;;;;;;;;5054067;28;20381;-42
2021/12/13 05:56:40;;;;;;;16.80;8.20;;;;;;;;;;5053692;28;20029;-42
2021/12/13 05:59:18;;;;;;;20.15;8.38;;;;;;;;;;5053733;28;20070;-42
2021/12/13 06:02:02;;;;;;;16.08;8.35;;;;;;;;;;5053593;28;20032;-42
2021/12/13 06:04:37;;;;;;;17.92;8.73;;;;;;;;;;5053786;28;20377;-41
2021/12/13 06:07:13;;;;;;;15.48;8.50;;;;;;;;;;5053678;28;20052;-42
2021/12/13 06:09:41;;;;;;;16.10;8.18;;;;;;;;;;5053625;28;20035;-42
2021/12/13 06:12:11;;;;;;;20.52;9.43;;;;;;;;;;5053152;28;20088;-42
2021/12/13 06:14:37;;;;;;;16.58;8.65;;;;;;;;;;5053669;28;20250;-41
2021/12/13 06:17:26;;;;;;;16.75;9.27;;;;;;;;;;5053485;28;20033;-41
2021/12/13 06:19:59;;;;;;;23.80;12.50;;;;;;;;;;5053185;28;20056;-42
2021/12/13 06:22:28;;;;;;;21.05;9.85;;;;;;;;;;5052914;28;20029;-41
2021/12/13 06:24:59;;;;;;;22.45;10.05;;;;;;;;;;5053567;28;20385;-42
2021/12/13 06:27:31;;;;;;;21.48;9.88;;;;;;;;;;5053239;28;20049;-41
2021/12/13 06:30:21;;;;;;;27.10;10.55;;;;;;;;;;5052921;28;20082;-41
2021/12/13 06:33:03;;;;;;;23.52;11.10;;;;;;;;;;5043293;28;20397;-42
2021/12/13 06:35:35;;;;;;;21.52;11.35;;;;;;;;;;5053221;28;20025;-41
2021/12/13 06:38:20;;;;;;;23.40;11.95;;;;;;;;;;5035224;28;20370;-40
2021/12/13 06:41:14;;;;;;;33.67;14.48;;;;;;;;;;5052512;28;20029;-41
2021/12/13 06:43:56;;;;;;;28.15;14.45;;;;;;;;;;5052649;28;20029;-41
2021/12/13 06:46:21;;;;;;;34.90;14.73;;;;;;;;;;5052727;28;20059;-41
2021/12/13 06:48:50;;;;;;;29.40;14.23;;;;;;;;;;5052623;28;20361;-41
2021/12/13 06:51:35;;;;;;;42.60;17.90;;;;;;;;;;5052675;28;20032;-41
2021/12/13 06:54:06;;;;;;;39.25;16.90;;;;;;;;;;5052648;28;20102;-41
2021/12/13 06:56:34;;;;;;;31.00;15.38;;;;;;;;;;5052541;28;20166;-41
2021/12/13 06:59:02;;;;;;;40.05;15.93;;;;;;;;;;5052431;28;20036;-41
2021/12/13 07:01:30;;;;;;;37.10;15.18;;;;;;;;;;5052702;28;20094;-41
2021/12/13 07:04:00;;;;;;;28.65;14.93;;;;;;;;;;5052685;28;20075;-41
2021/12/13 07:06:27;;;;;;;34.80;14.65;;;;;;;;;;5052419;28;20021;-41
2021/12/13 07:09:13;;;;;;;33.67;15.27;;;;;;;;;;5052551;28;20025;-41
2021/12/13 07:12:00;;;;;;;29.77;13.85;;;;;;;;;;5051941;28;20053;-41
2021/12/13 07:14:38;;;;;;;29.35;15.05;;;;;;;;;;5051999;28;20497;-41
2021/12/13 07:17:17;;;;;;;27.88;14.68;;;;;;;;;;5052463;28;20040;-41
2021/12/13 07:19:46;;;;;;;31.67;15.50;;;;;;;;;;5052538;28;20159;-41
2021/12/13 07:22:24;;;;;;;38.78;16.75;;;;;;;;;;5052346;28;20025;-42
2021/12/13 07:25:15;;;;;;;29.95;14.43;;;;;;;;;;5052449;28;20021;-42
2021/12/13 07:27:46;;;;;;;24.55;13.20;;;;;;;;;;5052139;28;20507;-43
2021/12/13 07:30:21;;;;;;;20.75;11.40;;;;;;;;;;5052371;28;20044;-42
2021/12/13 07:32:52;;;;;;;27.73;13.80;;;;;;;;;;5052073;28;20060;-42
2021/12/13 07:35:25;;;;;;;23.73;13.63;;;;;;;;;;5055319;28;20484;-41
2021/12/13 07:38:08;;;;;;;26.45;16.73;;;;;;;;;;5056531;28;20021;-41
2021/12/13 07:40:40;;;;;;;27.42;16.13;;;;;;;;;;5056199;28;20496;-41
2021/12/13 07:43:29;;;;;;;29.08;16.95;;;;;;;;;;5056153;28;20041;-41
2021/12/13 07:46:09;;;;;;;33.38;18.60;;;;;;;;;;5056305;28;20131;-45
2021/12/13 07:48:55;;;;;;;35.00;18.45;;;;;;;;;;5056304;28;20057;-42
2021/12/13 07:51:28;;;;;;;30.08;18.92;;;;;;;;;;5055183;28;20049;-43
2021/12/13 07:54:08;;;;;;;30.70;17.58;;;;;;;;;;5056196;28;20090;-42
2021/12/13 07:56:34;;;;;;;35.95;20.42;;;;;;;;;;5055894;28;20043;-43
2021/12/13 07:59:13;;;;;;;43.78;23.25;;;;;;;;;;5056163;28;20033;-43
2021/12/13 08:01:47;;;;;;;41.00;22.98;;;;;;;;;;5055835;28;20033;-43
2021/12/13 08:04:17;;;;;;;44.30;25.17;;;;;;;;;;5056145;28;20028;-43
2021/12/13 08:06:49;;;;;;;51.70;27.08;;;;;;;;;;5056031;28;20021;-42
2021/12/13 08:09:23;;;;;;;39.83;22.58;;;;;;;;;;5055987;28;20036;-44
2021/12/13 08:12:03;;;;;;;33.20;20.08;;;;;;;;;;5055421;28;20067;-43
2021/12/13 08:14:39;;;;;;;30.35;19.50;;;;;;;;;;5055847;28;20094;-43
2021/12/13 08:17:26;;;;;;;31.63;19.20;;;;;;;;;;5055687;28;20028;-43
2021/12/13 08:19:58;;;;;;;29.45;19.38;;;;;;;;;;5055692;28;20385;-43
2021/12/13 08:22:28;;;;;;;28.48;19.23;;;;;;;;;;5055724;28;20393;-43
2021/12/13 08:25:00;;;;;;;31.20;19.75;;;;;;;;;;5055451;28;20377;-43
2021/12/13 08:27:56;;;;;;;28.48;16.42;;;;;;;;;;5055225;28;20037;-43
2021/12/13 08:30:52;;;;;;;26.50;16.52;;;;;;;;;;5050259;28;20041;-43
2021/12/13 08:33:46;;;;;;;27.35;17.15;;;;;;;;;;5054481;28;20037;-43
2021/12/13 08:36:14;;;;;;;24.30;16.42;;;;;;;;;;5050221;28;20041;-44
2021/12/13 08:39:05;;;;;;;24.05;16.35;;;;;;;;;;5054974;28;20029;-43
2021/12/13 08:41:45;;;;;;;24.65;15.82;;;;;;;;;;5043847;28;20098;-43
2021/12/13 08:44:11;;;;;;;27.92;15.48;;;;;;;;;;5054829;28;20025;-45
2021/12/13 08:46:40;;;;;;;23.55;15.70;;;;;;;;;;5054659;28;20032;-42
2021/12/13 08:49:31;;;;;;;23.40;14.48;;;;;;;;;;5055116;28;20098;-45
2021/12/13 08:52:09;;;;;;;25.58;15.38;;;;;;;;;;5055024;28;20035;-43
2021/12/13 08:54:41;;;;;;;32.70;18.48;;;;;;;;;;5055226;28;20056;-43
2021/12/13 08:57:25;;;;;;;27.75;16.50;;;;;;;;;;5054265;28;20115;-43
2021/12/13 08:59:52;;;;;;;23.33;15.35;;;;;;;;;;5052829;28;20121;-43
2021/12/13 09:02:18;;;;;;;22.75;14.77;;;;;;;;;;5052408;28;20057;-44
2021/12/13 09:05:06;;;;;;;29.08;15.13;;;;;;;;;;5053131;28;20071;-43
2021/12/13 09:07:32;;;;;;;20.42;14.13;;;;;;;;;;5053872;28;20123;-43
2021/12/13 09:09:58;;;;;;;23.90;15.50;;;;;;;;;;5054034;28;20488;-43
2021/12/13 09:12:43;;;;;;;21.92;14.55;;;;;;;;;;5053228;28;20380;-43
2021/12/13 09:15:22;;;;;;;21.05;14.90;;;;;;;;;;5052831;28;20021;-43
2021/12/13 09:17:50;;;;;;;22.75;15.98;;;;;;;;;;5053810;28;20075;-43
2021/12/13 09:20:18;;;;;;;24.10;16.55;;;;;;;;;;5053808;28;20078;-43
2021/12/13 09:22:46;;;;;;;20.83;14.93;;;;;;;;;;5054859;28;20426;-43
2021/12/13 09:25:16;;;;;;;22.90;15.10;;;;;;;;;;5053448;28;20033;-43
2021/12/13 09:27:53;;;;;;;22.48;15.45;;;;;;;;;;5053853;28;20033;-43
2021/12/13 09:30:33;;;;;;;22.42;15.75;;;;;;;;;;5053767;28;20032;-42
2021/12/13 09:33:15;;;;;;;23.70;16.70;;;;;;;;;;5054600;28;20056;-43
2021/12/13 09:35:48;;;;;;;24.10;16.98;;;;;;;;;;5036465;28;20485;-43
2021/12/13 09:38:17;;;;;;;26.70;17.55;;;;;;;;;;5053102;28;20060;-43
2021/12/13 09:40:45;;;;;;;39.50;16.75;;;;;;;;;;5054179;28;20021;-43
2021/12/13 09:43:11;;;;;;;25.25;16.65;;;;;;;;;;5054058;28;20473;-43
2021/12/13 09:45:43;;;;;;;33.28;19.40;;;;;;;;;;5054369;28;20059;-42
2021/12/13 09:48:19;;;;;;;27.42;17.08;;;;;;;;;;5054022;28;20507;-43
2021/12/13 09:50:47;;;;;;;23.45;16.27;;;;;;;;;;5053895;28;20376;-42
2021/12/13 09:53:14;;;;;;;29.45;16.63;;;;;;;;;;5053713;28;20036;-43
2021/12/13 09:55:47;;;;;;;25.10;18.13;;;;;;;;;;5053983;28;20036;-43
2021/12/13 09:58:32;;;;;;;34.33;20.27;;;;;;;;;;5052080;28;20063;-42
2021/12/13 10:01:23;;;;;;;39.60;23.70;;;;;;;;;;5053373;28;20029;-43
2021/12/13 10:04:03;;;;;;;37.35;23.27;;;;;;;;;;5052762;28;20029;-43
2021/12/13 10:06:49;;;;;;;35.30;20.38;;;;;;;;;;5053737;28;20079;-42
2021/12/13 10:09:25;;;;;;;36.20;21.55;;;;;;;;;;5053508;28;20024;-42
2021/12/13 10:11:59;;;;;;;32.38;20.00;;;;;;;;;;5052301;28;20502;-43
2021/12/13 10:14:29;;;;;;;27.67;17.55;;;;;;;;;;5053341;28;20037;-43
2021/12/13 10:16:55;;;;;;;;;;;;;;;;;;5054045;28;20029;-43
2021/12/13 10:19:44;;;;;;;23.95;16.27;;;;;;;;;;5053277;28;19959;-43
2021/12/13 10:22:12;;;;;;;24.10;15.02;;;;;;;;;;5049262;28;20033;-44
2021/12/13 10:24:50;;;;;;;24.02;15.50;;;;;;;;;;5050030;28;20036;-43
2021/12/13 10:27:18;;;;;;;22.38;14.57;;;;;;;;;;5052883;28;20059;-43
2021/12/13 10:29:48;;;;;;;25.52;15.45;;;;;;;;;;5053127;28;20025;-43
2021/12/13 10:32:18;;;;;;;21.02;14.43;;;;;;;;;;5053070;28;20024;-43
2021/12/13 10:34:48;;;;;;;22.55;14.60;;;;;;;;;;5052265;28;20035;-44
2021/12/13 10:37:35;;;;;;;21.55;14.27;;;;;;;;;;5052833;28;20032;-43
2021/12/13 10:40:20;;;;;;;23.42;15.38;;;;;;;;;;5053071;28;20060;-44
2021/12/13 10:42:52;;;;;;;22.38;15.18;;;;;;;;;;5053098;28;20108;-44
2021/12/13 10:45:23;;;;;;;21.83;13.93;;;;;;;;;;5052679;28;20024;-43
2021/12/13 10:47:53;;;;;;;19.98;14.60;;;;;;;;;;5052642;28;20029;-44
2021/12/13 10:50:24;;;;;;;21.83;13.57;;;;;;;;;;5051890;28;20029;-41
2021/12/13 10:52:51;;;;;;;19.83;13.32;;;;;;;;;;5034879;28;20520;-43
2021/12/13 10:55:28;;;;;;;20.58;13.85;;;;;;;;;;5052893;28;20036;-42
2021/12/13 10:57:56;;;;;;;19.77;13.15;;;;;;;;;;5052831;28;20028;-43
2021/12/13 11:00:27;;;;;;;20.30;13.02;;;;;;;;;;5052415;28;20028;-46
2021/12/13 11:03:10;;;;;;;19.20;13.07;;;;;;;;;;5052280;28;20021;-42
2021/12/13 11:05:36;;;;;;;19.55;12.80;;;;;;;;;;5052641;28;20047;-42
2021/12/13 11:08:05;;;;;;;20.75;13.02;;;;;;;;;;5052508;28;20021;-42
2021/12/13 11:10:35;;;;;;;18.85;11.98;;;;;;;;;;5051604;28;20084;-42
2021/12/13 11:13:01;;;;;;;;;;;;;;;;;;5053009;28;20449;-43
2021/12/13 11:15:34;;;;;;;17.52;12.75;;;;;;;;;;5052571;28;19912;-42
2021/12/13 11:18:03;;;;;;;20.83;13.02;;;;;;;;;;5052603;28;20032;-42
2021/12/13 11:20:37;;;;;;;20.33;13.27;;;;;;;;;;5052444;28;20017;-44
2021/12/13 11:23:05;;;;;;;21.27;12.43;;;;;;;;;;5051801;28;20021;-43
2021/12/13 11:25:38;;;;;;;20.08;11.80;;;;;;;;;;5051860;28;20025;-43
2021/12/13 11:28:04;;;;;;;19.08;11.85;;;;;;;;;;5052028;28;20045;-43
2021/12/13 11:30:33;;;;;;;18.30;11.55;;;;;;;;;;5052126;28;20380;-43
2021/12/13 11:32:58;;;;;;;19.77;12.13;;;;;;;;;;5052121;28;20485;-42
2021/12/13 11:36:14;;;;;;;17.38;11.80;;;;;;;;;;5052100;28;20040;-43
2021/12/13 11:38:58;;;;;;;16.63;11.15;;;;;;;;;;4971137;28;20489;-42
2021/12/13 11:41:51;;;;;;;17.13;11.57;;;;;;;;;;4971075;28;20558;-43
2021/12/13 11:44:50;;;;;;;17.35;11.93;;;;;;;;;;5040150;28;20185;-42
2021/12/13 11:47:34;;;;;;;20.52;11.40;;;;;;;;;;5051943;28;20032;-42
2021/12/13 11:50:19;;;;;;;18.90;12.60;;;;;;;;;;5051911;28;20025;-42
2021/12/13 11:53:20;;;;;;;22.13;13.10;;;;;;;;;;5051870;28;20465;-42
2021/12/13 11:56:22;;;;;;;26.48;13.48;;;;;;;;;;5051763;28;20492;-42
2021/12/13 11:59:25;;;;;;;19.63;13.23;;;;;;;;;;5051886;28;20556;-42
2021/12/13 12:02:03;;;;;;;21.80;14.25;;;;;;;;;;5051534;28;20025;-42
2021/12/13 12:05:06;;;;;;;26.35;16.35;;;;;;;;;;5052129;28;20036;-42
2021/12/13 12:08:11;;;;;;;29.40;17.42;;;;;;;;;;5051221;28;20033;-42
2021/12/13 12:11:04;;;;;;;25.65;16.52;;;;;;;;;;5036336;28;20417;-42
2021/12/13 12:14:04;;;;;;;28.60;17.58;;;;;;;;;;5052013;28;20060;-42
2021/12/13 12:16:34;;;;;;;28.02;17.98;;;;;;;;;;5051969;28;20056;-42
2021/12/13 12:18:59;;;;;;;33.03;18.63;;;;;;;;;;5051502;28;20029;-42
2021/12/13 12:21:31;;;;;;;30.77;17.08;;;;;;;;;;5054817;28;20108;-42
2021/12/13 12:24:30;;;;;;;31.13;17.10;;;;;;;;;;5055613;28;20081;-42
2021/12/13 12:27:02;;;;;;;34.08;18.13;;;;;;;;;;5055345;28;20515;-42
2021/12/13 12:29:32;;;;;;;34.30;18.13;;;;;;;;;;5055303;28;20534;-42
2021/12/13 12:32:06;;;;;;;54.85;32.58;;;;;;;;;;5055742;28;20027;-42
2021/12/13 12:34:34;;;;;;;38.70;23.30;;;;;;;;;;5054595;28;20036;-42
2021/12/13 12:36:59;;;;;;;30.83;18.13;;;;;;;;;;5055175;28;20056;-42
2021/12/13 12:39:49;;;;;;;21.33;12.98;;;;;;;;;;5055330;28;20060;-42
2021/12/13 12:42:38;;;;;;;21.77;12.68;;;;;;;;;;5055422;28;20099;-44
2021/12/13 12:45:13;;;;;;;20.73;12.32;;;;;;;;;;5055303;28;20033;-42
2021/12/13 12:47:50;;;;;;;18.80;12.32;;;;;;;;;;5054775;28;20021;-42
2021/12/13 12:50:28;;;;;;;17.95;11.25;;;;;;;;;;5054315;28;20039;-43
2021/12/13 12:52:57;;;;;;;17.58;12.35;;;;;;;;;;5055071;28;20048;-43
2021/12/13 12:55:27;;;;;;;18.42;11.77;;;;;;;;;;5054965;28;20158;-42
2021/12/13 12:57:54;;;;;;;26.60;15.10;;;;;;;;;;5054899;28;20488;-42
2021/12/13 13:00:28;;;;;;;29.13;19.17;;;;;;;;;;5052774;28;20029;-43
2021/12/13 13:02:53;;;;;;;35.55;19.65;;;;;;;;;;5053429;28;20032;-43
2021/12/13 13:05:23;;;;;;;41.85;23.83;;;;;;;;;;5052394;28;20480;-43
2021/12/13 13:07:51;;;;;;;32.42;18.30;;;;;;;;;;5053335;28;20032;-42
2021/12/13 13:10:46;;;;;;;41.60;23.83;;;;;;;;;;5052903;28;20037;-43
2021/12/13 13:13:12;;;;;;;34.25;16.48;;;;;;;;;;5052615;28;20389;-43
2021/12/13 13:15:45;;;;;;;25.80;14.43;;;;;;;;;;5052491;28;20742;-43
2021/12/13 13:18:17;;;;;;;22.02;11.82;;;;;;;;;;5052517;28;20044;-42
2021/12/13 13:21:04;;;;;;;19.17;11.55;;;;;;;;;;5052634;28;20473;-43
2021/12/13 13:23:41;;;;;;;21.85;12.25;;;;;;;;;;5034848;28;20079;-44
2021/12/13 13:26:08;;;;;;;24.23;14.25;;;;;;;;;;5052970;28;20420;-41
2021/12/13 13:28:49;;;;;;;21.50;12.48;;;;;;;;;;5052975;28;20039;-44
2021/12/13 13:31:20;;;;;;;21.00;10.95;;;;;;;;;;5052495;28;20389;-41
2021/12/13 13:33:52;;;;;;;21.45;11.38;;;;;;;;;;5052524;28;20033;-44
2021/12/13 13:36:49;;;;;;;28.25;11.77;;;;;;;;;;5051934;28;20484;-41
2021/12/13 13:39:17;;;;;;;20.98;10.70;;;;;;;;;;5051156;28;20037;-43
2021/12/13 13:41:46;;;;;;;20.67;10.85;;;;;;;;;;5052518;28;20025;-43
2021/12/13 13:44:18;;;;;;;20.98;11.43;;;;;;;;;;5052524;28;20020;-44
2021/12/13 13:46:44;;;;;;;22.40;11.73;;;;;;;;;;5052278;28;20068;-43
2021/12/13 13:49:16;;;;;;;21.73;11.80;;;;;;;;;;5052112;28;20100;-42
2021/12/13 13:51:42;;;;;;;20.20;12.43;;;;;;;;;;5052478;28;20029;-42
2021/12/13 13:54:07;;;;;;;20.95;11.95;;;;;;;;;;5034119;28;20385;-42
2021/12/13 13:56:40;;;;;;;31.13;13.98;;;;;;;;;;5052351;28;20025;-43
2021/12/13 13:59:13;;;;;;;21.63;11.93;;;;;;;;;;5052061;28;20131;-43
2021/12/13 14:01:48;;;;;;;24.45;13.15;;;;;;;;;;5052379;28;20076;-42
2021/12/13 14:04:17;;;;;;;24.25;13.32;;;;;;;;;;5052027;28;20144;-42
2021/12/13 14:06:47;;;;;;;22.88;11.88;;;;;;;;;;5052267;28;20108;-43
2021/12/13 14:09:25;;;;;;;23.17;12.82;;;;;;;;;;5051735;28;20025;-42
2021/12/13 14:11:57;;;;;;;24.77;12.68;;;;;;;;;;5051734;28;20083;-43
2021/12/13 14:14:38;;;;;;;24.85;12.98;;;;;;;;;;5051693;28;20123;-42
2021/12/13 14:17:03;;;;;;;;;;;;;;;;;;5052436;28;20108;-43
2021/12/13 14:19:36;;;;;;;30.40;14.10;;;;;;;;;;5051888;28;20027;-42
2021/12/13 14:22:05;;;;;;;32.10;15.63;;;;;;;;;;5051615;28;20035;-41
2021/12/13 14:24:43;;;;;;;28.25;14.90;;;;;;;;;;5051529;28;20029;-44
2021/12/13 14:27:28;;;;;;;35.17;18.02;;;;;;;;;;5051815;28;20102;-43
2021/12/13 14:30:17;;;;;;;36.92;17.25;;;;;;;;;;5051717;28;20392;-43
2021/12/13 14:32:43;;;;;;;35.15;16.35;;;;;;;;;;5051624;28;20384;-44
2021/12/13 14:35:21;;;;;;;39.30;18.50;;;;;;;;;;5033706;28;20390;-43
2021/12/13 14:37:49;;;;;;;30.75;15.60;;;;;;;;;;5051599;28;20491;-42
2021/12/13 14:40:15;;;;;;;35.30;16.00;;;;;;;;;;5051524;28;20030;-43
2021/12/13 14:42:42;;;;;;;31.02;16.88;;;;;;;;;;5051034;28;20059;-43
2021/12/13 14:45:13;;;;;;;32.78;16.25;;;;;;;;;;5051489;28;20048;-42
2021/12/13 14:47:43;;;;;;;32.85;15.60;;;;;;;;;;5050658;28;20056;-42
2021/12/13 14:50:21;;;;;;;23.85;12.13;;;;;;;;;;5051299;28;20087;-42
2021/12/13 14:53:03;;;;;;;23.73;12.00;;;;;;;;;;5050957;28;20051;-43
2021/12/13 14:55:37;;;;;;;25.20;12.70;;;;;;;;;;5051342;28;20108;-42
2021/12/13 14:58:08;;;;;;;33.15;16.15;;;;;;;;;;5050879;28;20025;-42
2021/12/13 15:00:38;;;;;;;35.47;15.75;;;;;;;;;;5051020;28;20441;-42
2021/12/13 15:03:07;;;;;;;;;;;;;;;;;;5051597;28;20040;-42
2021/12/13 15:05:36;;;;;;;29.60;14.40;;;;;;;;;;5051198;28;19922;-42
2021/12/13 15:08:07;;;;;;;37.03;16.48;;;;;;;;;;5050926;28;20031;-42
2021/12/13 15:10:36;;;;;;;;;;;;;;;;;;5051181;28;20146;-42
2021/12/13 15:13:07;;;;;;;35.72;16.83;;;;;;;;;;5050421;28;19920;-43
2021/12/13 15:15:40;;;;;;;43.25;20.65;;;;;;;;;;5050913;28;20029;-42
2021/12/13 15:18:11;;;;;;;39.85;19.38;;;;;;;;;;5050766;28;20032;-42
2021/12/13 15:20:42;;;;;;;42.97;19.00;;;;;;;;;;5050690;28;20068;-42
2021/12/13 15:23:16;;;;;;;43.17;19.13;;;;;;;;;;5050702;28;20032;-42
2021/12/13 15:25:49;;;;;;;39.97;20.05;;;;;;;;;;5050604;28;20365;-42